createdAt,value
2023-05-23T00:01:39.922Z,99784.16
2023-05-23T00:04:06.832Z,99780.97
2023-05-23T00:06:34.407Z,99774.19
2023-05-23T00:09:01.132Z,99772.69
2023-05-23T00:11:29.118Z,99772.41
2023-05-23T00:13:57.512Z,99772.25
2023-05-23T00:16:24.096Z,99776.91
2023-05-23T00:18:51.848Z,99779.75
2023-05-23T00:21:18.590Z,99786.00
2023-05-23T00:23:45.104Z,99785.72
2023-05-23T00:26:11.669Z,99787.47
2023-05-23T00:28:38.700Z,99785.72
2023-05-23T00:31:05.448Z,99799.78
2023-05-23T00:33:33.309Z,99811.34
2023-05-23T00:36:02.726Z,99818.31
2023-05-23T00:38:29.735Z,99821.81
2023-05-23T00:40:56.296Z,99810.84
2023-05-23T00:43:22.901Z,99813.03
2023-05-23T00:45:49.960Z,99818.19
2023-05-23T00:48:17.027Z,99813.88
2023-05-23T00:50:43.765Z,99805.38
2023-05-23T00:53:10.337Z,99788.91
2023-05-23T00:55:37.341Z,99795.59
2023-05-23T00:58:03.931Z,99793.16
2023-05-23T01:00:30.855Z,99778.56
2023-05-23T01:10:23.347Z,99789.88
2023-05-23T01:13:17.696Z,99789.44
2023-05-23T01:15:55.747Z,99795.25
2023-05-23T01:18:26.835Z,99803.69
2023-05-23T01:20:57.021Z,99797.22
2023-05-23T01:23:47.306Z,99793.78
2023-05-23T01:27:06.008Z,99799.03
2023-05-23T01:29:37.490Z,99801.59
2023-05-23T01:32:07.312Z,99794.81
2023-05-23T01:34:36.693Z,99803.38
2023-05-23T01:37:08.670Z,99807.06
2023-05-23T01:39:35.304Z,99807.56
2023-05-23T01:42:02.043Z,99815.75
2023-05-23T01:44:29.048Z,99822.78
2023-05-23T01:46:55.777Z,99815.41
2023-05-23T01:49:24.029Z,99810.94
2023-05-23T01:51:50.833Z,99810.06
2023-05-23T01:54:19.789Z,99806.88
2023-05-23T01:56:47.575Z,99806.47
2023-05-23T01:59:14.111Z,99812.25
2023-05-23T02:01:41.538Z,99803.41
2023-05-23T02:04:08.214Z,99801.16
2023-05-23T02:06:34.818Z,99802.81
2023-05-23T02:09:01.592Z,99801.28
2023-05-23T02:11:28.107Z,99798.09
2023-05-23T02:13:54.633Z,99796.53
2023-05-23T02:16:21.753Z,99796.94
2023-05-23T02:18:49.293Z,99781.81
2023-05-23T02:21:15.961Z,99781.78
2023-05-23T02:23:42.613Z,99774.78
2023-05-23T02:26:09.212Z,99767.63
2023-05-23T02:28:35.834Z,99765.94
2023-05-23T02:31:02.722Z,99757.16
2023-05-23T02:33:29.336Z,99748.59
2023-05-23T02:35:55.882Z,99745.09
2023-05-23T02:38:22.537Z,99741.03
2023-05-23T02:40:50.693Z,99738.38
2023-05-23T02:43:17.331Z,99734.88
2023-05-23T02:45:44.038Z,99735.03
2023-05-23T02:48:12.079Z,99744.84
2023-05-23T02:50:38.837Z,99740.50
2023-05-23T02:53:05.393Z,99734.75
2023-05-23T02:55:32.045Z,99734.03
2023-05-23T02:58:01.617Z,99730.28
2023-05-23T03:00:28.176Z,99717.22
2023-05-23T03:02:54.790Z,99712.66
2023-05-23T03:05:21.487Z,99710.97
2023-05-23T03:07:48.030Z,99706.81
2023-05-23T03:10:14.603Z,99705.72
2023-05-23T03:12:41.233Z,99698.69
2023-05-23T03:15:08.232Z,99692.84
2023-05-23T03:17:34.820Z,99696.03
2023-05-23T03:20:01.438Z,99693.44
2023-05-23T03:22:27.997Z,99698.19
2023-05-23T03:24:54.578Z,99701.44
2023-05-23T03:27:21.192Z,99703.19
2023-05-23T03:29:48.342Z,99699.78
2023-05-23T03:32:15.033Z,99707.91
2023-05-23T03:34:41.686Z,99703.06
2023-05-23T03:37:08.307Z,99700.13
2023-05-23T03:39:34.871Z,99693.94
2023-05-23T03:42:01.446Z,99699.00
2023-05-23T03:44:28.017Z,99693.84
2023-05-23T03:46:54.642Z,99692.44
2023-05-23T03:49:21.420Z,99695.91
2023-05-23T03:51:47.988Z,99689.13
2023-05-23T03:54:14.609Z,99694.47
2023-05-23T03:56:41.172Z,99697.84
2023-05-23T03:59:07.746Z,99704.03
2023-05-23T04:01:34.326Z,99708.53
2023-05-23T04:04:01.031Z,99715.63
2023-05-23T04:06:30.110Z,99720.88
2023-05-23T04:08:56.923Z,99725.09
2023-05-23T04:11:23.788Z,99726.22
2023-05-23T04:13:52.061Z,99726.97
2023-05-23T04:16:18.728Z,99727.22
2023-05-23T04:18:47.260Z,99741.44
2023-05-23T04:21:14.034Z,99732.84
2023-05-23T04:23:40.634Z,99727.22
2023-05-23T04:26:07.299Z,99736.22
2023-05-23T04:28:34.765Z,99740.69
2023-05-23T04:31:03.218Z,99739.44
2023-05-23T04:33:30.635Z,99738.72
2023-05-23T04:35:57.454Z,99744.09
2023-05-23T04:38:25.196Z,99745.09
2023-05-23T04:40:54.624Z,99746.88
2023-05-23T04:43:21.936Z,99748.94
2023-05-23T04:45:49.983Z,99753.00
2023-05-23T04:48:17.329Z,99756.47
2023-05-23T04:50:44.468Z,99755.84
2023-05-23T04:53:11.021Z,99748.72
2023-05-23T04:55:37.663Z,99762.13
2023-05-23T04:58:04.490Z,99753.56
2023-05-23T05:00:31.046Z,99759.03
2023-05-23T05:02:57.694Z,99753.44
2023-05-23T05:05:24.297Z,99746.88
2023-05-23T05:07:51.199Z,99754.44
2023-05-23T05:10:17.969Z,99747.09
2023-05-23T05:12:49.604Z,99762.06
2023-05-23T05:15:17.548Z,99755.19
2023-05-23T05:17:44.912Z,99760.78
2023-05-23T05:20:12.285Z,99764.69
2023-05-23T05:22:43.024Z,99756.31
2023-05-23T05:25:10.887Z,99761.31
2023-05-23T05:27:40.565Z,99759.25
2023-05-23T05:30:08.891Z,99768.75
2023-05-23T05:32:35.634Z,99767.22
2023-05-23T05:35:03.334Z,99767.16
2023-05-23T05:37:30.185Z,99759.28
2023-05-23T05:39:56.937Z,99760.78
2023-05-23T05:42:23.567Z,99767.63
2023-05-23T05:44:50.303Z,99761.50
2023-05-23T05:47:16.921Z,99763.72
2023-05-23T05:49:43.473Z,99767.91
2023-05-23T05:52:10.917Z,99775.81
2023-05-23T05:54:37.721Z,99772.50
2023-05-23T05:57:04.637Z,99767.50
2023-05-23T05:59:32.648Z,99773.50
2023-05-23T06:01:59.429Z,99768.16
2023-05-23T06:04:26.222Z,99779.00
2023-05-23T06:06:52.911Z,99778.84
2023-05-23T06:09:19.699Z,99784.06
2023-05-23T06:11:46.567Z,99795.56
2023-05-23T06:14:13.175Z,99792.34
2023-05-23T06:16:40.377Z,99796.47
2023-05-23T06:19:08.450Z,99795.84
2023-05-23T06:21:35.220Z,99807.03
2023-05-23T06:24:01.816Z,99795.78
2023-05-23T06:26:28.384Z,99805.19
2023-05-23T06:28:54.978Z,99802.28
2023-05-23T06:31:21.576Z,99801.63
2023-05-23T06:33:48.364Z,99800.97
2023-05-23T06:36:15.026Z,99809.03
2023-05-23T06:38:41.567Z,99806.72
2023-05-23T06:41:08.161Z,99812.56
2023-05-23T06:43:34.710Z,99808.34
2023-05-23T06:46:01.648Z,99811.53
2023-05-23T06:48:28.305Z,99810.34
2023-05-23T06:50:55.085Z,99818.03
2023-05-23T06:53:21.677Z,99818.44
2023-05-23T06:55:48.208Z,99813.00
2023-05-23T06:58:14.911Z,99808.38
2023-05-23T07:00:41.714Z,99811.81
2023-05-23T07:03:08.521Z,99814.47
2023-05-23T07:05:38.600Z,99813.44
2023-05-23T07:08:07.642Z,99811.53
2023-05-23T07:10:35.329Z,99814.41
2023-05-23T07:13:02.161Z,99800.84
2023-05-23T07:15:28.701Z,99811.25
2023-05-23T07:17:56.012Z,99810.88
2023-05-23T07:20:22.728Z,99836.03
2023-05-23T07:22:51.570Z,99826.69
2023-05-23T07:25:18.993Z,99834.19
2023-05-23T07:27:45.620Z,99827.50
2023-05-23T07:30:12.405Z,99830.88
2023-05-23T07:32:39.093Z,99821.88
2023-05-23T07:35:06.598Z,99826.19
2023-05-23T07:37:33.397Z,99828.25
2023-05-23T07:40:01.440Z,99827.19
2023-05-23T07:42:28.027Z,99819.94
2023-05-23T07:44:54.544Z,99835.69
2023-05-23T07:47:21.129Z,99826.31
2023-05-23T07:49:47.692Z,99833.53
2023-05-23T07:52:14.329Z,99820.31
2023-05-23T07:54:40.913Z,99829.91
2023-05-23T07:57:07.690Z,99824.97
2023-05-23T07:59:34.256Z,99820.03
2023-05-23T08:02:00.852Z,99815.66
2023-05-23T08:04:27.474Z,99812.00
2023-05-23T08:07:05.182Z,99817.81
2023-05-23T08:09:32.565Z,99819.47
2023-05-23T08:11:59.229Z,99844.31
2023-05-23T08:14:42.242Z,99842.31
2023-05-23T08:17:14.408Z,99831.09
2023-05-23T08:19:42.073Z,99831.59
2023-05-23T08:22:08.747Z,99831.09
2023-05-23T08:24:35.421Z,99847.34
2023-05-23T08:27:02.069Z,99831.25
2023-05-23T08:29:28.725Z,99831.91
2023-05-23T08:31:55.303Z,99850.03
2023-05-23T08:34:21.971Z,99836.97
2023-05-23T08:36:48.528Z,99842.66
2023-05-23T08:39:15.088Z,99842.13
2023-05-23T08:41:41.661Z,99858.38
2023-05-23T08:44:08.274Z,99855.22
2023-05-23T08:46:41.133Z,99853.97
2023-05-23T08:49:08.459Z,99858.09
2023-05-23T08:51:37.937Z,99866.81
2023-05-23T08:54:06.256Z,99858.91
2023-05-23T08:56:33.045Z,99873.69
2023-05-23T08:58:59.691Z,99847.34
2023-05-23T09:01:26.563Z,99850.69
2023-05-23T09:03:53.325Z,99859.41
2023-05-23T09:06:21.946Z,99862.63
2023-05-23T09:08:48.587Z,99858.38
2023-05-23T09:11:15.532Z,99862.91
2023-05-23T09:13:42.133Z,99879.56
2023-05-23T09:16:12.646Z,99877.56
2023-05-23T09:18:44.208Z,99877.72
2023-05-23T09:21:12.863Z,99877.03
2023-05-23T09:23:41.582Z,99880.38
2023-05-23T09:26:13.441Z,99888.44
2023-05-23T09:28:43.468Z,99886.25
2023-05-23T09:31:13.430Z,99886.06
2023-05-23T09:33:42.922Z,99891.97
2023-05-23T09:36:09.810Z,99905.53
2023-05-23T09:38:41.061Z,99908.94
2023-05-23T09:41:08.166Z,99903.03
2023-05-23T09:43:34.811Z,99905.53
2023-05-23T09:46:07.708Z,99914.72
2023-05-23T09:48:34.342Z,99906.78
2023-05-23T09:51:05.062Z,99911.47
2023-05-23T09:53:32.290Z,99917.03
2023-05-23T09:56:11.577Z,99919.75
2023-05-23T09:58:39.159Z,99925.44
2023-05-23T10:01:10.142Z,99916.50
2023-05-23T10:03:48.734Z,99930.25
2023-05-23T10:06:42.954Z,99918.94
2023-05-23T10:09:15.432Z,99920.09
2023-05-23T10:12:20.606Z,99927.97
2023-05-23T10:14:54.683Z,99938.19
2023-05-23T10:17:33.122Z,99935.34
2023-05-23T10:20:12.531Z,99939.84
2023-05-23T10:22:40.294Z,99933.66
2023-05-23T10:25:08.579Z,99943.94
2023-05-23T10:27:35.539Z,99938.03
2023-05-23T10:30:02.973Z,99938.16
2023-05-23T10:32:31.043Z,99946.66
2023-05-23T10:35:36.555Z,99933.94
2023-05-23T10:38:21.919Z,99937.13
2023-05-23T10:41:03.573Z,99955.84
2023-05-23T10:43:53.517Z,99939.44
2023-05-23T10:46:24.107Z,99955.13
2023-05-23T10:48:57.339Z,99952.69
2023-05-23T10:51:24.923Z,99942.41
2023-05-23T10:53:54.729Z,99949.13
2023-05-23T10:56:23.491Z,99981.06
2023-05-23T10:59:00.439Z,99965.66
2023-05-23T11:01:27.364Z,99964.25
2023-05-23T11:03:55.903Z,99963.09
2023-05-23T11:06:39.071Z,99965.28
2023-05-23T11:09:19.764Z,99970.34
2023-05-23T11:11:53.303Z,99948.91
2023-05-23T11:14:45.899Z,99964.09
2023-05-23T11:17:12.610Z,99952.28
2023-05-23T11:19:39.730Z,99956.38
2023-05-23T11:22:09.922Z,99962.22
2023-05-23T11:24:53.149Z,99955.38
2023-05-23T11:27:39.768Z,99963.09
2023-05-23T11:30:13.997Z,99970.94
2023-05-23T11:32:41.936Z,99963.72
2023-05-23T11:35:10.973Z,99965.22
2023-05-23T11:37:40.887Z,99966.59
2023-05-23T11:40:28.434Z,99965.59
2023-05-23T11:42:55.190Z,99965.19
2023-05-23T11:45:25.964Z,99965.19
2023-05-23T11:47:52.976Z,99954.34
2023-05-23T11:50:24.530Z,99956.34
2023-05-23T11:52:51.939Z,99962.91
2023-05-23T11:55:22.746Z,99958.31
2023-05-23T11:57:51.620Z,99957.09
2023-05-23T12:00:19.299Z,99948.06
2023-05-23T12:02:48.776Z,99952.38
2023-05-23T12:05:15.704Z,99957.56
2023-05-23T12:07:42.994Z,99947.53
2023-05-23T12:10:11.221Z,99942.31
2023-05-23T12:12:42.484Z,99940.34
2023-05-23T12:15:10.401Z,99932.41
2023-05-23T12:17:38.333Z,99967.78
2023-05-23T12:20:06.769Z,99950.06
2023-05-23T12:22:33.377Z,99942.16
2023-05-23T12:25:00.228Z,99971.31
2023-05-23T12:27:32.444Z,99953.50
2023-05-23T12:30:13.920Z,99944.72
2023-05-23T12:32:41.997Z,99953.06
2023-05-23T12:35:14.359Z,99951.56
2023-05-23T12:37:43.036Z,99943.16
2023-05-23T12:40:14.692Z,99947.69
2023-05-23T12:42:54.788Z,99951.84
2023-05-23T12:45:31.585Z,99974.19
2023-05-23T12:47:58.355Z,99964.81
2023-05-23T12:50:25.075Z,99954.44
2023-05-23T12:52:52.339Z,99973.47
2023-05-23T12:55:19.044Z,99967.66
2023-05-23T12:57:45.645Z,99967.13
2023-05-23T13:00:12.752Z,99981.81
2023-05-23T13:02:39.963Z,99985.63
2023-05-23T13:05:07.343Z,99978.59
2023-05-23T13:07:34.087Z,99978.47
2023-05-23T13:10:01.431Z,99968.34
2023-05-23T13:12:28.790Z,99983.34
2023-05-23T13:14:55.386Z,99980.78
2023-05-23T13:17:22.066Z,99972.97
2023-05-23T13:19:48.708Z,99984.53
2023-05-23T13:22:15.437Z,99998.63
2023-05-23T13:24:43.635Z,99993.41
2023-05-23T13:27:10.705Z,99994.88
2023-05-23T13:29:37.307Z,99995.84
2023-05-23T13:32:04.025Z,100009.81
2023-05-23T13:34:30.679Z,100007.06
2023-05-23T13:36:57.221Z,99998.84
2023-05-23T13:39:23.838Z,100004.94
2023-05-23T13:41:50.869Z,100007.59
2023-05-23T13:44:17.621Z,100004.84
2023-05-23T13:46:44.394Z,100006.09
2023-05-23T13:49:11.019Z,100009.31
2023-05-23T13:51:37.777Z,100012.66
2023-05-23T13:54:04.890Z,100013.91
2023-05-23T13:56:32.112Z,100022.09
2023-05-23T13:58:59.678Z,100034.63
2023-05-23T14:01:26.391Z,100030.03
2023-05-23T14:03:53.421Z,100016.72
2023-05-23T14:06:20.146Z,100018.38
2023-05-23T14:08:46.698Z,100023.81
2023-05-23T14:11:13.300Z,100026.63
2023-05-23T14:13:39.867Z,100027.97
2023-05-23T14:16:06.656Z,100016.13
2023-05-23T14:18:33.236Z,100027.97
2023-05-23T14:20:59.793Z,100025.81
2023-05-23T14:23:26.411Z,100043.56
2023-05-23T14:25:52.973Z,100030.91
2023-05-23T14:28:19.601Z,100039.50
2023-05-23T14:30:46.340Z,100038.31
2023-05-23T14:33:12.991Z,100039.41
2023-05-23T14:35:39.999Z,100029.41
2023-05-23T14:38:06.716Z,100041.50
2023-05-23T14:40:33.321Z,100045.44
2023-05-23T14:42:59.886Z,100038.97
2023-05-23T14:45:26.592Z,100043.19
2023-05-23T14:47:53.296Z,100046.97
2023-05-23T14:50:19.935Z,100062.63
2023-05-23T14:52:46.490Z,100043.13
2023-05-23T14:55:13.061Z,100051.41
2023-05-23T14:57:39.693Z,100068.53
2023-05-23T15:00:08.041Z,100046.44
2023-05-23T15:02:35.014Z,100051.22
2023-05-23T15:05:01.813Z,100064.63
2023-05-23T15:07:28.463Z,100051.06
2023-05-23T15:09:55.167Z,100053.81
2023-05-23T15:12:22.143Z,100064.53
2023-05-23T15:14:48.733Z,100082.56
2023-05-23T15:17:20.382Z,100082.72
2023-05-23T15:19:49.688Z,100058.00
2023-05-23T15:22:34.110Z,100086.25
2023-05-23T15:25:03.687Z,100069.91
2023-05-23T15:27:30.300Z,100069.09
2023-05-23T15:29:56.872Z,100066.03
2023-05-23T15:32:24.726Z,100064.88
2023-05-23T15:34:51.587Z,100060.41
2023-05-23T15:37:18.229Z,100070.38
2023-05-23T15:39:44.918Z,100064.03
2023-05-23T15:42:11.472Z,100099.28
2023-05-23T15:44:38.211Z,100076.78
2023-05-23T15:47:05.221Z,100073.81
2023-05-23T15:49:31.785Z,100085.44
2023-05-23T15:51:58.326Z,100097.00
2023-05-23T15:54:24.981Z,100084.06
2023-05-23T15:56:51.657Z,100094.44
2023-05-23T15:59:18.226Z,100111.22
2023-05-23T16:01:44.883Z,100107.84
2023-05-23T16:04:11.757Z,100099.91
2023-05-23T16:06:39.423Z,100097.56
2023-05-23T16:09:06.241Z,100096.56
2023-05-23T16:11:32.863Z,100090.81
2023-05-23T16:13:59.492Z,100091.94
2023-05-23T16:16:26.139Z,100095.34
2023-05-23T16:18:53.323Z,100104.47
2023-05-23T16:21:20.951Z,100108.19
2023-05-23T16:23:48.749Z,100109.06
2023-05-23T16:26:16.800Z,100102.44
2023-05-23T16:28:43.716Z,100096.44
2023-05-23T16:31:16.738Z,100110.56
2023-05-23T16:33:44.521Z,100106.63
2023-05-23T16:36:11.122Z,100100.56
2023-05-23T16:38:37.768Z,100108.06
2023-05-23T16:41:04.437Z,100099.75
2023-05-23T16:43:31.035Z,100104.34
2023-05-23T16:45:57.750Z,100108.25
2023-05-23T16:48:24.391Z,100103.91
2023-05-23T16:50:51.093Z,100112.22
2023-05-23T16:53:17.659Z,100113.34
2023-05-23T16:55:46.029Z,100113.81
2023-05-23T16:58:12.602Z,100113.94
2023-05-23T17:00:39.637Z,100132.53
2023-05-23T17:03:06.272Z,100120.22
2023-05-23T17:05:33.671Z,100120.34
2023-05-23T17:08:00.474Z,100121.91
2023-05-23T17:10:27.043Z,100138.84
2023-05-23T17:12:53.697Z,100138.47
2023-05-23T17:15:20.373Z,100148.34
2023-05-23T17:17:47.623Z,100132.19
2023-05-23T17:20:14.276Z,100135.78
2023-05-23T17:22:41.793Z,100137.25
2023-05-23T17:25:08.913Z,100155.47
2023-05-23T17:27:35.528Z,100143.16
2023-05-23T17:30:04.981Z,100157.03
2023-05-23T17:32:31.770Z,100156.53
2023-05-23T17:34:58.563Z,100166.91
2023-05-23T17:37:26.427Z,100177.53
2023-05-23T17:39:55.986Z,100171.47
2023-05-23T17:42:24.044Z,100181.38
2023-05-23T17:44:50.696Z,100189.69
2023-05-23T17:47:18.460Z,100179.16
2023-05-23T17:49:45.211Z,100194.59
2023-05-23T17:52:14.800Z,100195.16
2023-05-23T17:54:42.420Z,100200.38
2023-05-23T17:57:09.117Z,100201.56
2023-05-23T17:59:36.350Z,100216.16
2023-05-23T18:02:04.799Z,100210.31
2023-05-23T18:04:31.659Z,100212.47
2023-05-23T18:06:58.343Z,100211.41
2023-05-23T18:09:25.019Z,100211.97
2023-05-23T18:11:51.874Z,100211.84
2023-05-23T18:14:18.554Z,100220.53
2023-05-23T18:16:45.201Z,100206.78
2023-05-23T18:19:11.920Z,100226.75
2023-05-23T18:21:38.613Z,100218.41
2023-05-23T18:24:05.300Z,100221.16
2023-05-23T18:26:31.937Z,100220.31
2023-05-23T18:29:00.916Z,100233.28
2023-05-23T18:31:27.477Z,100243.47
2023-05-23T18:33:54.129Z,100236.91
2023-05-23T18:36:20.882Z,100239.03
2023-05-23T18:38:47.484Z,100252.59
2023-05-23T18:41:15.151Z,100265.75
2023-05-23T18:43:41.773Z,100254.09
2023-05-23T18:46:08.492Z,100258.13
2023-05-23T18:48:35.962Z,100275.81
2023-05-23T18:51:02.902Z,100272.88
2023-05-23T18:53:29.512Z,100270.53
2023-05-23T18:55:56.077Z,100276.38
2023-05-23T18:58:22.628Z,100268.75
2023-05-23T19:00:49.232Z,100295.25
2023-05-23T19:03:16.937Z,100300.16
2023-05-23T19:05:43.839Z,100304.91
2023-05-23T19:08:10.666Z,100305.53
2023-05-23T19:10:37.241Z,100303.72
2023-05-23T19:13:03.995Z,100306.28
2023-05-23T19:15:30.640Z,100318.47
2023-05-23T19:17:57.352Z,100306.19
2023-05-23T19:20:23.930Z,100313.50
2023-05-23T19:22:52.342Z,100324.31
2023-05-23T19:25:20.441Z,100333.13
2023-05-23T19:27:47.094Z,100330.03
2023-05-23T19:30:13.729Z,100346.38
2023-05-23T19:32:40.618Z,100348.16
2023-05-23T19:35:08.279Z,100355.72
2023-05-23T19:37:35.006Z,100357.38
2023-05-23T19:40:01.931Z,100356.13
2023-05-23T19:42:28.519Z,100356.88
2023-05-23T19:44:55.174Z,100358.56
2023-05-23T19:47:21.814Z,100372.44
2023-05-23T19:49:48.521Z,100374.88
2023-05-23T19:52:15.155Z,100396.19
2023-05-23T19:54:41.931Z,100392.81
2023-05-23T19:57:08.700Z,100386.22
2023-05-23T19:59:35.379Z,100379.88
2023-05-23T20:02:01.953Z,100390.69
2023-05-23T20:04:28.522Z,100395.59
2023-05-23T20:06:56.083Z,100393.47
2023-05-23T20:09:23.086Z,100400.13
2023-05-23T20:11:49.652Z,100407.88
2023-05-23T20:14:16.469Z,100398.44
2023-05-23T20:16:43.208Z,100393.88
2023-05-23T20:19:10.093Z,100398.97
2023-05-23T20:21:36.842Z,100405.44
2023-05-23T20:24:03.447Z,100408.84
2023-05-23T20:26:30.021Z,100411.06
2023-05-23T20:28:56.632Z,100408.84
2023-05-23T20:31:23.208Z,100401.72
2023-05-23T20:33:49.882Z,100409.88
2023-05-23T20:36:19.573Z,100412.84
2023-05-23T20:38:46.769Z,100410.22
2023-05-23T20:41:14.224Z,100417.19
2023-05-23T20:43:41.050Z,100426.53
2023-05-23T20:46:11.665Z,100422.19
2023-05-23T20:48:38.721Z,100423.25
2023-05-23T20:51:05.939Z,100421.66
2023-05-23T20:53:33.508Z,100426.13
2023-05-23T20:56:00.737Z,100421.75
2023-05-23T20:58:27.488Z,100412.56
2023-05-23T21:00:54.380Z,100430.78
2023-05-23T21:03:21.195Z,100430.97
2023-05-23T21:05:48.086Z,100426.41
2023-05-23T21:08:14.642Z,100433.19
2023-05-23T21:10:41.660Z,100439.66
2023-05-23T21:13:08.479Z,100441.38
2023-05-23T21:15:35.101Z,100436.50
2023-05-23T21:18:01.727Z,100439.66
2023-05-23T21:20:29.200Z,100437.13
2023-05-23T21:22:55.815Z,100437.13
2023-05-23T21:25:22.353Z,100435.84
2023-05-23T21:27:48.980Z,100439.78
2023-05-23T21:30:15.725Z,100442.00
2023-05-23T21:32:43.550Z,100457.06
2023-05-23T21:35:10.425Z,100447.50
2023-05-23T21:37:37.048Z,100447.31
2023-05-23T21:40:03.945Z,100450.38
2023-05-23T21:42:31.071Z,100453.13
2023-05-23T21:44:57.743Z,100452.06
2023-05-23T21:47:25.137Z,100451.97
2023-05-23T21:49:51.928Z,100447.59
2023-05-23T21:52:18.607Z,100462.28
2023-05-23T21:54:47.086Z,100461.00
2023-05-23T21:57:13.786Z,100461.31
2023-05-23T21:59:41.512Z,100454.09
2023-05-23T22:02:08.164Z,100462.06
2023-05-23T22:04:34.759Z,100459.81
2023-05-23T22:07:01.396Z,100465.66
2023-05-23T22:09:28.019Z,100463.63
2023-05-23T22:11:54.586Z,100459.28
2023-05-23T22:14:21.557Z,100470.00
2023-05-23T22:16:50.041Z,100467.34
2023-05-23T22:19:19.901Z,100465.75
2023-05-23T22:21:47.225Z,100469.03
2023-05-23T22:24:13.841Z,100466.81
2023-05-23T22:26:40.415Z,100473.72
2023-05-23T22:29:07.206Z,100464.91
2023-05-23T22:31:35.453Z,100469.47
2023-05-23T22:34:02.240Z,100473.53
2023-05-23T22:36:29.012Z,100471.06
2023-05-23T22:38:56.209Z,100481.00
2023-05-23T22:41:23.588Z,100474.56
2023-05-23T22:43:50.638Z,100479.38
2023-05-23T22:46:17.377Z,100478.84
2023-05-23T22:48:44.965Z,100474.03
2023-05-23T22:51:13.291Z,100476.97
2023-05-23T22:53:39.958Z,100469.47
2023-05-23T22:56:06.780Z,100471.81
2023-05-23T22:58:33.420Z,100464.53
2023-05-23T23:00:59.970Z,100471.16
2023-05-23T23:03:26.744Z,100458.44
2023-05-23T23:05:53.364Z,100466.50
2023-05-23T23:08:19.962Z,100457.47
2023-05-23T23:10:46.755Z,100450.66
2023-05-23T23:13:16.095Z,100461.38
2023-05-23T23:15:43.080Z,100457.03
2023-05-23T23:18:09.943Z,100446.72
2023-05-23T23:20:36.686Z,100455.00
2023-05-23T23:23:03.384Z,100448.09
2023-05-23T23:25:30.702Z,100446.91
2023-05-23T23:27:57.253Z,100451.44
2023-05-23T23:30:23.933Z,100455.69
2023-05-23T23:32:50.563Z,100450.25
2023-05-23T23:35:17.194Z,100462.25
2023-05-23T23:37:43.938Z,100450.00
2023-05-23T23:40:11.116Z,100470.78
2023-05-23T23:42:37.638Z,100456.03
2023-05-23T23:45:05.059Z,100451.16
2023-05-23T23:47:32.600Z,100453.66
2023-05-23T23:49:59.243Z,100449.50
2023-05-23T23:52:26.069Z,100454.56
2023-05-23T23:54:52.784Z,100461.84
2023-05-23T23:57:19.445Z,100466.31
2023-05-23T23:59:46.125Z,100468.31
